Picayune, MS

17:19 CDT le 01 octobre 2014 (GMT -0500)
Hide_A_Way Lake ~OWX | Change Station
CLOSE
Current Station
Stations météorologiques personnelles
Location: Carriere, MS
Altitude: 100 ft
Stations météo à proximité

Alt. 100 ft 30.58 °N, 89.65 °W | Updated 17 seconds ago

Couvert
Couvert
81.7 ° F
Paraît 88 ° F
N
0.0
Vent Variable Vent de Est
Gusts 7.0 mph

Aujourd'hui
Haut(e) -- | Bas -- ° F
--% Risque de précip.
Hier
Haut(e) -- | Bas -- ° F
Precip. -- pouce
6:52 AM 6:43 PM
Premier quartier, 51% visible
Pression 29.89 pouce
Visibilité 10.0 Miles terrestres
Nuages Peu 2300 ft
Nuages épars 2900 ft
Nuageux 6000 ft
indice de chaleur 88 ° F
Point de rosée 75 ° F
Humidité 80%
Précipitations 0.00 pouce
Profondeur de la couche neigeuse Non disponible.
UV 0.0 sur 12
Pollen 7.20 sur 12
Ozone Bon
PM2.5 Bon
Flu Activity Non disponible.
METAR KASD 012153Z AUTO 11004KT 10SM FEW023 SCT029 BKN060 27/22 A2989 RMK AO2 SLP121 T02720222

More Conditions Fewer Conditions

Pression 29.89 pouce
Visibilité 10.0 Miles terrestres
Nuages Peu 2300 ft
Nuages épars 2900 ft
Nuageux 6000 ft
indice de chaleur 88 ° F
Point de rosée 75 ° F
Humidité 80%
Précipitations 0.00 pouce
Profondeur de la couche neigeuse Non disponible.
UV 0.0 sur 12
Pollen 7.20 sur 12
Ozone Bon
PM2.5 Bon
Flu Activity Non disponible.
METAR KASD 012153Z AUTO 11004KT 10SM FEW023 SCT029 BKN060 27/22 A2989 RMK AO2 SLP121 T02720222

More Conditions Fewer Conditions

10-Day Weather Forecast

Almanac

Astronomie

Oct. 01, 2014 Lever Coucher
Temps réel 06:52 CDT 18:43 CDT
Crépuscule civil 06:28 CDT 19:07 CDT
Crépuscule nautique 06:00 CDT 19:35 CDT
Crépuscule astronomique 05:32 CDT 20:03 CDT
Lune 13:36 CDT Pas de coucher de lune
Durée de lumière visible 12h 39m
Longueur du jour
11h 51m
Tomorrow will be 1m 49s shorter.
Premier quartier, 51% of the Moon is Illuminated
Aujourd'hui
Premier quartier
Oct 8
Pleine lune
Oct 15
Dernier quartier
Oct 23
Nouveau
Oct 30
Premier quartier

Extrêmes aujourd'hui

State Highs State Lows

Community

WunderPhotos

Upload Photos

1,758,058 Photos téléchargées !

WunderBlogs® & News

By Dr. Jeff Masters
Director of Meteorology, Weather Underground
By Kari Strenfel
Meteorologist, Weather Underground
By Christopher C. Burt
Weather Historian, Weather Underground
October 1, 2014
October 1, 2014
October 1, 2014

Nearby

Qualité de l'air

  Qualité de l'air Indice de la qualité de l'air Polluant
Hier Bon
PM2.5
Hier Bon
OZONE
Actuel Bon
OZONE
Actuel Bon
PM2.5
mercredi Bon
OZONE
mercredi Bon
PM2.5
jeudi Bon
OZONE
jeudi Bon
PM2.5
vendredi Bon
OZONE
vendredi Bon
PM2.5
samedi Bon
OZONE
samedi Bon
PM2.5

Épaisseur de neige

Station Depth Altitude
Pas de nouvelles chutes de neige

Activité sismique

Ville Distance Mag. Time & Date
No recent earthquake activity has been reported nearby.
Minimum magnitude displayed is 2.5.

Températures des eaux côtières

Lieu Température
Aucun rapport de station

Stations météo à proximité